Terminal Aerodrome Forecast
Issued by NWS

Home | Current Version | Previous Version | Text Only | Print | Product List | Glossary On
Versions: 1 2 3 4 5 6 7 8 9 10 11
000
FTUS42 TJSJ 272300 RRA
TAFNCM
TAF
TNCM 272348Z 2800/2824 06008KT P6SM FEW022
     FM281200 08010KT P6SM VCSH SCT018 BKN045
     FM282300 10008KT P6SM VCSH SCT020 SCT040=

USA.gov is the U.S. government's official web portal to all federal, state and local government web resources and services.